createdAt,value
2018-08-31T00:02:06.347Z,47.74
2018-08-31T00:04:32.299Z,48.44
2018-08-31T00:06:58.272Z,47.96
2018-08-31T00:09:24.231Z,47.62
2018-08-31T00:11:50.194Z,47.21
2018-08-31T00:14:16.144Z,47.43
2018-08-31T00:16:42.091Z,47.08
2018-08-31T00:19:08.027Z,46.72
2018-08-31T00:21:33.995Z,47.78
2018-08-31T00:23:59.953Z,46.57
2018-08-31T00:26:25.925Z,47.46
2018-08-31T00:28:51.880Z,46.34
2018-08-31T00:31:17.940Z,46.38
2018-08-31T00:33:43.876Z,47.18
2018-08-31T00:36:09.815Z,45.74
2018-08-31T00:38:35.759Z,46.01
2018-08-31T00:41:01.724Z,46.21
2018-08-31T00:43:27.684Z,47.15
2018-08-31T00:45:53.632Z,46.47
2018-08-31T00:48:19.607Z,46.02
2018-08-31T00:50:45.561Z,45.76
2018-08-31T00:53:11.512Z,46.47
2018-08-31T00:55:37.479Z,46.18
2018-08-31T00:58:03.444Z,46.75
2018-08-31T01:00:29.417Z,45.88
2018-08-31T01:02:55.410Z,45.96
2018-08-31T01:05:21.392Z,45.81
2018-08-31T01:07:47.341Z,46.70
2018-08-31T01:10:13.304Z,46.63
2018-08-31T01:12:39.470Z,46.30
2018-08-31T01:15:05.412Z,46.61
2018-08-31T01:17:31.365Z,44.85
2018-08-31T01:19:57.317Z,45.60
2018-08-31T01:22:23.286Z,45.49
2018-08-31T01:24:49.243Z,46.46
2018-08-31T01:27:15.207Z,46.08
2018-08-31T01:29:41.145Z,45.97
2018-08-31T01:32:07.204Z,45.43
2018-08-31T01:34:33.162Z,46.07
2018-08-31T01:36:59.123Z,46.25
2018-08-31T01:39:25.104Z,46.53
2018-08-31T01:41:51.059Z,46.45
2018-08-31T01:44:16.984Z,45.77
2018-08-31T01:46:42.933Z,46.53
2018-08-31T01:49:08.887Z,46.92
2018-08-31T01:51:34.829Z,46.86
2018-08-31T01:54:00.766Z,46.64
2018-08-31T01:56:26.727Z,46.07
2018-08-31T01:58:52.668Z,46.71
2018-08-31T02:01:18.630Z,45.49
2018-08-31T02:03:44.561Z,45.61
2018-08-31T02:06:10.512Z,46.23
2018-08-31T02:08:36.543Z,46.78
2018-08-31T02:11:02.494Z,46.50
2018-08-31T02:13:28.455Z,46.76
2018-08-31T02:15:54.382Z,47.00
2018-08-31T02:18:20.428Z,47.48
2018-08-31T02:20:46.371Z,45.96
2018-08-31T02:23:12.327Z,46.74
2018-08-31T02:25:38.287Z,45.36
2018-08-31T02:28:04.253Z,48.35
2018-08-31T02:30:30.205Z,46.91
2018-08-31T02:32:56.160Z,47.37
2018-08-31T02:35:22.090Z,46.60
2018-08-31T02:37:48.034Z,47.00
2018-08-31T02:40:13.960Z,47.74
2018-08-31T02:42:39.917Z,46.56
2018-08-31T02:45:05.867Z,46.96
2018-08-31T02:47:31.818Z,46.72
2018-08-31T02:49:57.776Z,47.62
2018-08-31T02:52:23.734Z,47.36
2018-08-31T02:54:49.672Z,47.34
2018-08-31T02:57:15.605Z,46.99
2018-08-31T02:59:41.529Z,47.07
2018-08-31T03:02:07.487Z,46.91
2018-08-31T03:04:33.438Z,46.17
2018-08-31T03:06:59.366Z,46.86
2018-08-31T03:09:25.450Z,47.18
2018-08-31T03:11:51.449Z,47.92
2018-08-31T03:14:17.449Z,48.36
2018-08-31T03:16:43.397Z,47.75
2018-08-31T03:19:09.340Z,48.18
2018-08-31T03:21:35.302Z,46.98
2018-08-31T03:24:01.314Z,47.12
2018-08-31T03:26:27.283Z,47.80
2018-08-31T03:28:53.216Z,47.54
2018-08-31T03:31:19.208Z,46.62
2018-08-31T03:33:45.235Z,46.88
2018-08-31T03:36:11.233Z,47.37
2018-08-31T03:38:37.222Z,47.26
2018-08-31T03:41:03.206Z,46.74
2018-08-31T03:43:29.161Z,46.29
2018-08-31T03:45:55.159Z,46.44
2018-08-31T03:48:21.135Z,45.80
2018-08-31T03:50:47.109Z,46.24
2018-08-31T03:53:13.063Z,46.59
2018-08-31T03:55:39.025Z,45.11
2018-08-31T03:58:04.944Z,46.11
2018-08-31T04:00:30.951Z,46.19
2018-08-31T04:02:56.864Z,45.12
2018-08-31T04:05:22.879Z,45.90
2018-08-31T04:07:48.843Z,45.88
2018-08-31T04:10:14.800Z,46.78
2018-08-31T04:12:40.745Z,46.76
2018-08-31T04:15:06.798Z,46.75
2018-08-31T04:17:32.712Z,46.96
2018-08-31T04:19:58.771Z,47.19
2018-08-31T04:22:24.705Z,45.83
2018-08-31T04:24:50.659Z,45.43
2018-08-31T04:27:16.611Z,45.46
2018-08-31T04:29:42.589Z,45.73
2018-08-31T04:32:08.536Z,45.84
2018-08-31T04:34:34.468Z,45.89
2018-08-31T04:37:00.427Z,46.65
2018-08-31T04:39:26.386Z,46.00
2018-08-31T04:41:52.330Z,45.10
2018-08-31T04:44:18.291Z,46.48
2018-08-31T04:46:44.263Z,45.86
2018-08-31T04:49:10.214Z,45.90
2018-08-31T04:51:36.180Z,45.02
2018-08-31T04:54:02.149Z,46.17
2018-08-31T04:56:28.123Z,45.73
2018-08-31T04:58:54.108Z,45.24
2018-08-31T05:01:20.047Z,46.19
2018-08-31T05:03:45.982Z,45.51
2018-08-31T05:06:11.931Z,44.72
2018-08-31T05:08:37.907Z,45.15
2018-08-31T05:11:03.964Z,44.93
2018-08-31T05:13:29.904Z,44.68
2018-08-31T05:15:55.895Z,44.28
2018-08-31T05:18:21.844Z,45.21
2018-08-31T05:20:47.805Z,45.72
2018-08-31T05:23:13.736Z,45.58
2018-08-31T05:25:39.679Z,44.49
2018-08-31T05:28:05.685Z,44.76
2018-08-31T05:30:31.655Z,43.60
2018-08-31T05:32:57.594Z,44.04
2018-08-31T05:35:23.542Z,44.84
2018-08-31T05:37:49.528Z,44.65
2018-08-31T05:40:15.515Z,44.26
2018-08-31T05:42:41.473Z,43.82
2018-08-31T05:45:07.425Z,43.84
2018-08-31T05:47:33.414Z,43.09
2018-08-31T05:49:59.376Z,42.53
2018-08-31T05:52:25.432Z,41.93
2018-08-31T05:54:51.379Z,42.23
2018-08-31T05:57:17.317Z,42.97
2018-08-31T05:59:43.273Z,42.84
2018-08-31T06:02:09.285Z,41.75
2018-08-31T06:04:35.254Z,40.94
2018-08-31T06:07:01.236Z,40.68
2018-08-31T06:09:27.200Z,41.81
2018-08-31T06:11:53.262Z,40.80
2018-08-31T06:14:19.169Z,40.31
2018-08-31T06:16:45.124Z,40.90
2018-08-31T06:19:11.088Z,40.10
2018-08-31T06:21:37.040Z,39.16
2018-08-31T06:24:02.996Z,39.14
2018-08-31T06:26:28.932Z,38.70
2018-08-31T06:28:54.923Z,38.55
2018-08-31T06:31:20.868Z,38.31
2018-08-31T06:33:46.895Z,38.48
2018-08-31T06:36:12.845Z,38.42
2018-08-31T06:38:38.845Z,37.53
2018-08-31T06:41:04.797Z,37.64
2018-08-31T06:43:30.741Z,37.10
2018-08-31T06:45:56.696Z,37.25
2018-08-31T06:48:22.640Z,37.88
2018-08-31T06:50:48.600Z,38.24
2018-08-31T06:53:14.572Z,38.30
2018-08-31T06:55:40.538Z,38.15
2018-08-31T06:58:06.520Z,37.99
2018-08-31T07:00:32.489Z,36.67
2018-08-31T07:02:58.516Z,37.38
2018-08-31T07:05:24.453Z,35.58
2018-08-31T07:07:50.566Z,36.35
2018-08-31T07:10:16.527Z,36.40
2018-08-31T07:12:42.483Z,36.93
2018-08-31T07:15:08.473Z,36.40
2018-08-31T07:17:34.430Z,37.00
2018-08-31T07:20:00.388Z,36.26
2018-08-31T07:22:26.376Z,34.29
2018-08-31T07:24:52.333Z,34.51
2018-08-31T07:27:18.282Z,35.05
2018-08-31T07:29:44.277Z,34.50
2018-08-31T07:32:10.327Z,35.35
2018-08-31T07:34:36.281Z,35.47
2018-08-31T07:37:02.238Z,35.00
2018-08-31T07:39:28.210Z,34.89
2018-08-31T07:41:54.168Z,35.49
2018-08-31T07:44:20.132Z,35.11
2018-08-31T07:46:46.099Z,35.19
2018-08-31T07:49:12.073Z,33.87
2018-08-31T07:51:38.013Z,34.24
2018-08-31T07:54:04.057Z,34.05
2018-08-31T07:56:30.026Z,33.30
2018-08-31T07:58:55.984Z,33.81
2018-08-31T08:01:21.971Z,33.98
2018-08-31T08:03:47.973Z,34.12
2018-08-31T08:06:13.918Z,34.38
2018-08-31T08:08:39.868Z,34.66
2018-08-31T08:11:05.828Z,34.11
2018-08-31T08:13:31.784Z,35.26
2018-08-31T08:15:57.720Z,34.62
2018-08-31T08:18:23.685Z,33.82
2018-08-31T08:20:49.656Z,33.03
2018-08-31T08:23:15.588Z,31.64
2018-08-31T08:25:41.540Z,32.67
2018-08-31T08:28:07.582Z,33.49
2018-08-31T08:30:33.539Z,34.00
2018-08-31T08:32:59.519Z,34.26
2018-08-31T08:35:25.483Z,34.46
2018-08-31T08:37:51.467Z,34.68
2018-08-31T08:40:17.448Z,35.22
2018-08-31T08:42:43.385Z,35.26
2018-08-31T08:45:09.358Z,34.86
2018-08-31T08:47:35.312Z,34.77
2018-08-31T08:50:01.298Z,34.73
2018-08-31T08:52:27.247Z,34.40
2018-08-31T08:54:53.227Z,34.68
2018-08-31T08:57:19.198Z,34.53
2018-08-31T08:59:45.144Z,34.84
2018-08-31T09:02:11.080Z,35.33
2018-08-31T09:04:37.046Z,35.09
2018-08-31T09:07:03.003Z,34.13
2018-08-31T09:09:28.990Z,34.92
2018-08-31T09:11:54.980Z,34.82
2018-08-31T09:14:20.930Z,34.40
2018-08-31T09:16:46.985Z,35.12
2018-08-31T09:19:12.979Z,34.92
2018-08-31T09:21:38.966Z,34.61
2018-08-31T09:24:04.914Z,35.06
2018-08-31T09:26:30.886Z,36.21
2018-08-31T09:28:56.866Z,35.65
2018-08-31T09:31:22.864Z,34.98
2018-08-31T09:33:48.830Z,34.51
2018-08-31T09:36:14.778Z,35.13
2018-08-31T09:38:40.734Z,35.28
2018-08-31T09:41:06.684Z,35.08
2018-08-31T09:43:32.622Z,35.17
2018-08-31T09:45:58.563Z,35.87
2018-08-31T09:48:24.528Z,35.01
2018-08-31T09:50:50.474Z,34.40
2018-08-31T09:53:16.420Z,33.46
2018-08-31T09:55:42.379Z,34.04
2018-08-31T09:58:08.343Z,34.02
2018-08-31T10:00:34.293Z,34.31
2018-08-31T10:03:00.233Z,35.45
2018-08-31T10:05:26.205Z,35.25
2018-08-31T10:07:52.139Z,35.07
2018-08-31T10:10:18.080Z,34.57
2018-08-31T10:12:44.037Z,33.82
2018-08-31T10:15:09.973Z,34.12
2018-08-31T10:17:35.916Z,34.69
2018-08-31T10:20:01.878Z,33.66
2018-08-31T10:22:27.860Z,33.39
2018-08-31T10:24:53.808Z,33.61
2018-08-31T10:27:19.804Z,34.11
2018-08-31T10:29:45.752Z,33.34
2018-08-31T10:32:11.723Z,33.52
2018-08-31T10:34:37.664Z,32.36
2018-08-31T10:37:03.650Z,33.16
2018-08-31T10:39:29.623Z,33.77
2018-08-31T10:41:55.584Z,33.42
2018-08-31T10:44:21.599Z,33.45
2018-08-31T10:46:47.586Z,34.46
2018-08-31T10:49:13.557Z,33.89
2018-08-31T10:51:39.526Z,33.82
2018-08-31T10:54:05.516Z,32.70
2018-08-31T10:56:31.567Z,33.54
2018-08-31T10:58:57.523Z,32.44
2018-08-31T11:01:23.477Z,32.71
2018-08-31T11:03:49.449Z,33.17
2018-08-31T11:06:15.411Z,33.59
2018-08-31T11:08:41.345Z,33.23
2018-08-31T11:11:07.286Z,33.42
2018-08-31T11:13:33.237Z,33.17
2018-08-31T11:15:59.195Z,34.04
2018-08-31T11:18:25.171Z,33.50
2018-08-31T11:20:51.209Z,33.84
2018-08-31T11:23:17.144Z,33.43
2018-08-31T11:25:43.096Z,33.20
2018-08-31T11:28:09.033Z,33.24
2018-08-31T11:30:35.011Z,32.73
2018-08-31T11:33:01.001Z,32.99
2018-08-31T11:35:26.937Z,33.10
2018-08-31T11:37:52.873Z,33.15
2018-08-31T11:40:18.847Z,32.58
2018-08-31T11:42:44.812Z,33.18
2018-08-31T11:45:10.766Z,33.10
2018-08-31T11:47:36.729Z,33.46
2018-08-31T11:50:02.683Z,33.17
2018-08-31T11:52:28.629Z,33.32
2018-08-31T11:54:54.618Z,32.24
2018-08-31T11:57:20.611Z,33.50
2018-08-31T11:59:46.559Z,33.32
2018-08-31T12:02:12.548Z,33.36
2018-08-31T12:04:38.515Z,33.40
2018-08-31T12:07:04.517Z,33.99
2018-08-31T12:09:30.476Z,33.17
2018-08-31T12:11:56.468Z,33.01
2018-08-31T12:14:22.456Z,32.91
2018-08-31T12:16:48.436Z,32.92
2018-08-31T12:19:14.395Z,32.84
2018-08-31T12:21:40.325Z,32.86
2018-08-31T12:24:06.261Z,31.15
2018-08-31T12:26:32.210Z,32.08
2018-08-31T12:28:58.169Z,32.07
2018-08-31T12:31:24.160Z,31.46
2018-08-31T12:33:50.147Z,32.25
2018-08-31T12:36:16.114Z,32.57
2018-08-31T12:38:42.065Z,31.52
2018-08-31T12:41:08.034Z,32.78
2018-08-31T12:43:33.998Z,32.68
2018-08-31T12:45:59.967Z,31.58
2018-08-31T12:48:26.014Z,32.43
2018-08-31T12:50:52.045Z,32.32
2018-08-31T12:53:18.019Z,32.54
2018-08-31T12:55:43.992Z,32.59
2018-08-31T12:58:09.936Z,32.25
2018-08-31T13:00:35.949Z,32.21
2018-08-31T13:03:01.923Z,32.70
2018-08-31T13:05:27.879Z,32.43
2018-08-31T13:07:53.819Z,33.41
2018-08-31T13:10:19.793Z,32.45
2018-08-31T13:12:45.744Z,33.54
2018-08-31T13:15:11.715Z,32.75
2018-08-31T13:17:37.658Z,33.18
2018-08-31T13:20:03.743Z,32.59
2018-08-31T13:22:29.637Z,32.66
2018-08-31T13:24:55.589Z,33.22
2018-08-31T13:27:21.554Z,32.69
2018-08-31T13:29:47.517Z,33.36
2018-08-31T13:32:13.460Z,33.04
2018-08-31T13:34:39.424Z,31.97
2018-08-31T13:37:05.376Z,31.85
2018-08-31T13:39:31.349Z,32.11
2018-08-31T13:41:57.325Z,32.61
2018-08-31T13:44:23.350Z,31.87
2018-08-31T13:46:49.308Z,32.70
2018-08-31T13:49:15.397Z,32.41
2018-08-31T13:51:41.365Z,32.65
2018-08-31T13:54:07.341Z,32.94
2018-08-31T13:56:33.345Z,32.58
2018-08-31T13:58:59.311Z,33.34
2018-08-31T14:01:25.242Z,32.12
2018-08-31T14:03:51.217Z,32.48
2018-08-31T14:06:17.218Z,33.47
2018-08-31T14:08:43.237Z,33.35
2018-08-31T14:11:09.235Z,32.72
2018-08-31T14:13:35.205Z,33.45
2018-08-31T14:16:01.138Z,33.20
2018-08-31T14:18:27.110Z,32.89
2018-08-31T14:20:53.085Z,33.62
2018-08-31T14:23:19.053Z,32.18
2018-08-31T14:25:45.013Z,32.23
2018-08-31T14:28:11.010Z,32.96
2018-08-31T14:30:37.001Z,33.50
2018-08-31T14:33:02.974Z,32.17
2018-08-31T14:35:28.947Z,33.30
2018-08-31T14:37:54.953Z,31.89
2018-08-31T14:40:20.927Z,32.16
2018-08-31T14:42:46.873Z,32.41
2018-08-31T14:45:12.845Z,32.24
2018-08-31T14:47:38.897Z,32.22
2018-08-31T14:50:04.890Z,31.92
2018-08-31T14:52:30.877Z,31.97
2018-08-31T14:54:56.879Z,31.53
2018-08-31T14:57:22.877Z,32.00
2018-08-31T14:59:48.849Z,32.12
2018-08-31T15:02:14.872Z,32.06
2018-08-31T15:04:40.818Z,32.51
2018-08-31T15:07:06.760Z,32.13
2018-08-31T15:09:32.709Z,31.62
2018-08-31T15:11:58.644Z,32.85
2018-08-31T15:14:24.620Z,32.87
2018-08-31T15:16:50.574Z,32.96
2018-08-31T15:19:16.540Z,32.19
2018-08-31T15:21:42.548Z,32.51
2018-08-31T15:24:08.504Z,33.01
2018-08-31T15:26:34.465Z,32.99
2018-08-31T15:29:00.472Z,32.31
2018-08-31T15:31:26.499Z,33.61
2018-08-31T15:33:52.404Z,32.73
2018-08-31T15:36:18.410Z,33.31
2018-08-31T15:38:44.437Z,32.97
2018-08-31T15:41:10.475Z,32.76
2018-08-31T15:43:36.445Z,32.32
2018-08-31T15:46:02.417Z,33.17
2018-08-31T15:48:28.503Z,32.75
2018-08-31T15:50:54.474Z,33.10
2018-08-31T15:53:20.475Z,32.25
2018-08-31T15:55:46.475Z,32.75
2018-08-31T15:58:12.424Z,32.96
2018-08-31T16:00:38.493Z,33.43
2018-08-31T16:03:04.454Z,32.45
2018-08-31T16:05:30.592Z,32.64
2018-08-31T16:07:56.591Z,32.18
2018-08-31T16:10:22.536Z,33.42
2018-08-31T16:12:48.496Z,32.18
2018-08-31T16:15:14.447Z,32.58
2018-08-31T16:17:40.385Z,33.01
2018-08-31T16:20:06.320Z,32.75
2018-08-31T16:22:32.254Z,32.39
2018-08-31T16:24:58.235Z,33.30
2018-08-31T16:27:24.186Z,33.71
2018-08-31T16:29:50.153Z,33.01
2018-08-31T16:32:16.104Z,32.05
2018-08-31T16:34:42.138Z,32.86
2018-08-31T16:37:08.122Z,32.79
2018-08-31T16:39:34.077Z,32.14
2018-08-31T16:42:00.053Z,33.01
2018-08-31T16:44:26.035Z,33.36
2018-08-31T16:46:52.149Z,32.95
2018-08-31T16:49:18.120Z,33.43
2018-08-31T16:51:44.103Z,33.12
2018-08-31T16:54:10.132Z,32.81
2018-08-31T16:56:36.113Z,33.51
2018-08-31T16:59:02.076Z,32.66
2018-08-31T17:01:28.063Z,33.38
2018-08-31T17:03:54.051Z,32.55
2018-08-31T17:06:20.034Z,31.98
2018-08-31T17:08:46.022Z,32.13
2018-08-31T17:11:12.010Z,32.77
2018-08-31T17:13:37.988Z,32.23
2018-08-31T17:16:03.981Z,32.61
2018-08-31T17:18:29.959Z,32.84
2018-08-31T17:20:55.923Z,32.45
2018-08-31T17:23:21.890Z,33.16
2018-08-31T17:25:47.857Z,32.92
2018-08-31T17:28:13.824Z,33.60
2018-08-31T17:30:39.777Z,33.51
2018-08-31T17:33:05.793Z,33.58
2018-08-31T17:35:31.760Z,33.75
2018-08-31T17:37:57.729Z,33.21
2018-08-31T17:40:23.775Z,33.18
2018-08-31T17:42:49.774Z,34.24
2018-08-31T17:45:15.753Z,33.38
2018-08-31T17:47:41.707Z,34.38
2018-08-31T17:50:07.678Z,33.63
2018-08-31T17:52:33.654Z,33.83
2018-08-31T17:54:59.610Z,33.85
2018-08-31T17:57:25.563Z,34.43
2018-08-31T17:59:51.541Z,34.01
2018-08-31T18:02:17.517Z,33.90
2018-08-31T18:04:43.475Z,34.62
2018-08-31T18:07:09.478Z,34.04
2018-08-31T18:09:35.575Z,34.12
2018-08-31T18:12:01.527Z,34.14
2018-08-31T18:14:27.503Z,34.48
2018-08-31T18:16:53.473Z,33.82
2018-08-31T18:19:19.925Z,34.52
2018-08-31T18:21:45.914Z,34.72
2018-08-31T18:24:11.883Z,34.80
2018-08-31T18:26:38.000Z,34.42
2018-08-31T18:29:03.977Z,34.72
2018-08-31T18:31:29.957Z,35.07
2018-08-31T18:33:55.949Z,35.42
2018-08-31T18:36:21.890Z,35.58
2018-08-31T18:38:47.854Z,36.21
2018-08-31T18:41:13.826Z,35.01
2018-08-31T18:43:39.799Z,36.27
2018-08-31T18:46:05.785Z,36.46
2018-08-31T18:48:31.789Z,35.72
2018-08-31T18:50:57.743Z,35.62
2018-08-31T18:53:23.744Z,36.20
2018-08-31T18:55:49.731Z,35.36
2018-08-31T18:58:15.696Z,36.15
2018-08-31T19:00:41.657Z,36.75
2018-08-31T19:03:07.643Z,36.92
2018-08-31T19:05:33.616Z,37.17
2018-08-31T19:07:59.597Z,36.88
2018-08-31T19:10:25.558Z,37.42
2018-08-31T19:12:51.607Z,38.68
2018-08-31T19:15:17.582Z,39.18
2018-08-31T19:17:43.544Z,38.28
2018-08-31T19:20:09.569Z,38.48
2018-08-31T19:22:35.535Z,38.39
2018-08-31T19:25:01.575Z,38.10
2018-08-31T19:27:27.524Z,37.36
2018-08-31T19:29:53.614Z,37.68
2018-08-31T19:32:19.585Z,37.71
2018-08-31T19:34:45.647Z,37.26
2018-08-31T19:37:11.621Z,36.83
2018-08-31T19:39:37.580Z,37.12
2018-08-31T19:42:03.560Z,36.98
2018-08-31T19:44:29.582Z,35.85
2018-08-31T19:46:55.590Z,36.76
2018-08-31T19:49:21.598Z,37.04
2018-08-31T19:51:47.611Z,37.54
2018-08-31T19:54:13.666Z,36.89
2018-08-31T19:56:39.638Z,37.48
2018-08-31T19:59:05.604Z,37.23
2018-08-31T20:01:31.588Z,37.42
2018-08-31T20:03:57.616Z,37.04
2018-08-31T20:06:23.598Z,36.73
2018-08-31T20:08:49.579Z,37.16
2018-08-31T20:11:15.553Z,36.81
2018-08-31T20:13:41.566Z,37.30
2018-08-31T20:16:07.585Z,36.56
2018-08-31T20:18:33.631Z,37.13
2018-08-31T20:20:59.633Z,37.06
2018-08-31T20:23:25.643Z,37.76
2018-08-31T20:25:51.608Z,37.74
2018-08-31T20:28:17.565Z,38.04
2018-08-31T20:30:43.522Z,38.02
2018-08-31T20:33:09.579Z,37.28
2018-08-31T20:35:35.533Z,36.06
2018-08-31T20:38:01.543Z,36.66
2018-08-31T20:40:27.528Z,36.33
2018-08-31T20:42:53.512Z,37.11
2018-08-31T20:45:19.488Z,37.21
2018-08-31T20:54:31.353Z,38.88
2018-08-31T20:56:57.401Z,38.36
2018-08-31T20:59:23.348Z,37.98
2018-08-31T21:01:49.429Z,37.38
2018-08-31T21:04:15.437Z,37.68
2018-08-31T21:06:41.406Z,37.66
2018-08-31T21:09:07.364Z,36.46
2018-08-31T21:11:33.346Z,36.23
2018-08-31T21:13:59.295Z,36.71
2018-08-31T21:16:25.259Z,36.81
2018-08-31T21:18:51.219Z,35.56
2018-08-31T21:21:17.210Z,35.73
2018-08-31T21:23:43.264Z,36.00
2018-08-31T21:26:09.292Z,36.01
2018-08-31T21:28:35.284Z,36.25
2018-08-31T21:31:01.264Z,35.87
2018-08-31T21:33:27.305Z,35.63
2018-08-31T21:35:53.266Z,35.65
2018-08-31T21:38:19.238Z,35.13
2018-08-31T21:40:45.219Z,34.99
2018-08-31T21:43:11.195Z,33.96
2018-08-31T21:45:37.203Z,34.99
2018-08-31T21:48:03.223Z,34.27
2018-08-31T21:50:29.193Z,33.80
2018-08-31T21:52:55.168Z,33.58
2018-08-31T21:55:21.123Z,33.22
2018-08-31T21:57:47.096Z,33.85
2018-08-31T22:00:13.087Z,34.27
2018-08-31T22:02:39.137Z,33.95
2018-08-31T22:05:05.130Z,34.39
2018-08-31T22:07:31.088Z,33.51
2018-08-31T22:09:57.040Z,34.03
2018-08-31T22:12:22.989Z,34.03
2018-08-31T22:14:48.949Z,33.29
2018-08-31T22:17:14.884Z,34.70
2018-08-31T22:19:40.824Z,34.08
2018-08-31T22:22:06.853Z,34.10
2018-08-31T22:24:32.812Z,33.99
2018-08-31T22:26:58.754Z,34.31
2018-08-31T22:29:24.729Z,33.01
2018-08-31T22:31:50.693Z,34.03
2018-08-31T22:34:16.711Z,33.73
2018-08-31T22:36:42.641Z,33.53
2018-08-31T22:39:08.611Z,33.14
2018-08-31T22:41:34.573Z,33.41
2018-08-31T22:44:00.648Z,33.27
2018-08-31T22:46:26.626Z,33.46
2018-08-31T22:48:52.588Z,33.54
2018-08-31T22:51:18.567Z,33.19
2018-08-31T22:53:44.529Z,34.02
2018-08-31T22:56:10.461Z,34.03
2018-08-31T22:58:36.425Z,33.84
2018-08-31T23:01:02.375Z,33.59
2018-08-31T23:03:28.350Z,33.30
2018-08-31T23:05:54.299Z,32.57
2018-08-31T23:08:20.261Z,33.52
2018-08-31T23:10:46.211Z,33.68
2018-08-31T23:13:12.189Z,32.56
2018-08-31T23:15:38.155Z,32.61
2018-08-31T23:18:04.094Z,33.06
2018-08-31T23:20:30.035Z,32.77
2018-08-31T23:22:55.975Z,33.02
2018-08-31T23:25:21.921Z,33.22
2018-08-31T23:27:47.929Z,33.42
2018-08-31T23:30:13.901Z,33.64
2018-08-31T23:32:39.871Z,33.90
2018-08-31T23:35:05.808Z,34.56
2018-08-31T23:37:31.756Z,34.54
2018-08-31T23:39:57.708Z,33.80
2018-08-31T23:42:23.683Z,34.68
2018-08-31T23:44:49.651Z,34.83
2018-08-31T23:47:15.593Z,34.18
2018-08-31T23:49:41.535Z,34.82
2018-08-31T23:52:07.496Z,35.08
2018-08-31T23:54:33.464Z,34.66
2018-08-31T23:56:59.416Z,35.09
2018-08-31T23:59:25.346Z,35.29
